sensor_id;sensor_type;location;lat;lon;timestamp;P1;durP1;ratioP1;P2;durP2;ratioP2
36441;SDS011;64346;50.820;16.274;2022-11-20T00:01:13;33.63;;;16.90;;
36441;SDS011;64346;50.820;16.274;2022-11-20T00:03:41;31.23;;;16.80;;
36441;SDS011;64346;50.820;16.274;2022-11-20T00:06:10;34.25;;;17.60;;
36441;SDS011;64346;50.820;16.274;2022-11-20T00:08:40;38.05;;;19.30;;
36441;SDS011;64346;50.820;16.274;2022-11-20T00:11:11;36.10;;;17.77;;
36441;SDS011;64346;50.820;16.274;2022-11-20T00:13:45;44.15;;;21.52;;
36441;SDS011;64346;50.820;16.274;2022-11-20T00:16:15;43.10;;;21.70;;
36441;SDS011;64346;50.820;16.274;2022-11-20T00:18:49;43.70;;;21.23;;
36441;SDS011;64346;50.820;16.274;2022-11-20T00:21:25;41.90;;;20.45;;
36441;SDS011;64346;50.820;16.274;2022-11-20T00:23:57;42.75;;;19.13;;
36441;SDS011;64346;50.820;16.274;2022-11-20T00:26:25;43.45;;;21.27;;
36441;SDS011;64346;50.820;16.274;2022-11-20T00:28:56;42.08;;;20.23;;
36441;SDS011;64346;50.820;16.274;2022-11-20T00:31:25;45.80;;;20.98;;
36441;SDS011;64346;50.820;16.274;2022-11-20T00:33:53;44.53;;;21.30;;
36441;SDS011;64346;50.820;16.274;2022-11-20T00:36:21;47.88;;;23.45;;
36441;SDS011;64346;50.820;16.274;2022-11-20T00:38:51;43.25;;;20.90;;
36441;SDS011;64346;50.820;16.274;2022-11-20T00:41:19;51.03;;;22.73;;
36441;SDS011;64346;50.820;16.274;2022-11-20T00:43:46;48.67;;;23.42;;
36441;SDS011;64346;50.820;16.274;2022-11-20T00:46:18;48.63;;;22.95;;
36441;SDS011;64346;50.820;16.274;2022-11-20T00:48:47;47.80;;;22.98;;
36441;SDS011;64346;50.820;16.274;2022-11-20T00:51:16;47.78;;;22.90;;
36441;SDS011;64346;50.820;16.274;2022-11-20T00:53:45;51.22;;;24.35;;
36441;SDS011;64346;50.820;16.274;2022-11-20T00:56:16;49.35;;;23.27;;
36441;SDS011;64346;50.820;16.274;2022-11-20T00:58:47;46.03;;;21.23;;
36441;SDS011;64346;50.820;16.274;2022-11-20T01:01:19;51.13;;;23.25;;
36441;SDS011;64346;50.820;16.274;2022-11-20T01:03:52;46.28;;;22.50;;
36441;SDS011;64346;50.820;16.274;2022-11-20T01:06:21;49.78;;;22.65;;
36441;SDS011;64346;50.820;16.274;2022-11-20T01:08:52;42.63;;;20.70;;
36441;SDS011;64346;50.820;16.274;2022-11-20T01:11:22;45.35;;;22.13;;
36441;SDS011;64346;50.820;16.274;2022-11-20T01:13:52;48.67;;;20.88;;
36441;SDS011;64346;50.820;16.274;2022-11-20T01:16:28;47.28;;;23.48;;
36441;SDS011;64346;50.820;16.274;2022-11-20T01:19:00;44.95;;;21.55;;
36441;SDS011;64346;50.820;16.274;2022-11-20T01:21:32;41.33;;;21.35;;
36441;SDS011;64346;50.820;16.274;2022-11-20T01:24:02;48.03;;;21.45;;
36441;SDS011;64346;50.820;16.274;2022-11-20T01:26:31;40.95;;;19.65;;
36441;SDS011;64346;50.820;16.274;2022-11-20T01:29:00;41.35;;;21.05;;
36441;SDS011;64346;50.820;16.274;2022-11-20T01:31:30;43.97;;;20.88;;
36441;SDS011;64346;50.820;16.274;2022-11-20T01:34:04;41.08;;;21.45;;
36441;SDS011;64346;50.820;16.274;2022-11-20T01:36:34;37.50;;;20.10;;
36441;SDS011;64346;50.820;16.274;2022-11-20T01:39:07;40.58;;;20.33;;
36441;SDS011;64346;50.820;16.274;2022-11-20T01:41:42;47.03;;;21.90;;
36441;SDS011;64346;50.820;16.274;2022-11-20T01:44:11;38.50;;;18.38;;
36441;SDS011;64346;50.820;16.274;2022-11-20T01:46:42;40.17;;;19.60;;
36441;SDS011;64346;50.820;16.274;2022-11-20T01:49:25;36.70;;;18.63;;
36441;SDS011;64346;50.820;16.274;2022-11-20T01:52:00;36.05;;;18.33;;
36441;SDS011;64346;50.820;16.274;2022-11-20T01:54:34;36.50;;;17.88;;
36441;SDS011;64346;50.820;16.274;2022-11-20T01:57:06;35.47;;;17.65;;
36441;SDS011;64346;50.820;16.274;2022-11-20T01:59:41;33.85;;;16.73;;
36441;SDS011;64346;50.820;16.274;2022-11-20T02:02:12;36.72;;;17.42;;
36441;SDS011;64346;50.820;16.274;2022-11-20T02:04:43;33.88;;;16.08;;
36441;SDS011;64346;50.820;16.274;2022-11-20T02:07:13;35.75;;;16.52;;
36441;SDS011;64346;50.820;16.274;2022-11-20T02:09:43;30.48;;;16.08;;
36441;SDS011;64346;50.820;16.274;2022-11-20T02:12:11;30.15;;;15.45;;
36441;SDS011;64346;50.820;16.274;2022-11-20T02:14:41;33.25;;;15.63;;
36441;SDS011;64346;50.820;16.274;2022-11-20T02:17:08;32.83;;;15.52;;
36441;SDS011;64346;50.820;16.274;2022-11-20T02:19:38;29.17;;;14.38;;
36441;SDS011;64346;50.820;16.274;2022-11-20T02:24:47;26.83;;;13.20;;
36441;SDS011;64346;50.820;16.274;2022-11-20T02:27:17;26.77;;;13.10;;
36441;SDS011;64346;50.820;16.274;2022-11-20T02:29:46;26.90;;;13.32;;
36441;SDS011;64346;50.820;16.274;2022-11-20T02:32:20;27.25;;;13.57;;
36441;SDS011;64346;50.820;16.274;2022-11-20T02:34:51;26.38;;;13.27;;
36441;SDS011;64346;50.820;16.274;2022-11-20T02:37:18;30.10;;;14.73;;
36441;SDS011;64346;50.820;16.274;2022-11-20T02:39:47;26.63;;;12.98;;
36441;SDS011;64346;50.820;16.274;2022-11-20T02:42:19;27.38;;;13.25;;
36441;SDS011;64346;50.820;16.274;2022-11-20T02:44:46;28.60;;;13.18;;
36441;SDS011;64346;50.820;16.274;2022-11-20T02:47:13;29.15;;;14.00;;
36441;SDS011;64346;50.820;16.274;2022-11-20T02:49:40;32.28;;;15.52;;
36441;SDS011;64346;50.820;16.274;2022-11-20T02:52:08;24.33;;;12.90;;
36441;SDS011;64346;50.820;16.274;2022-11-20T02:54:35;27.50;;;14.15;;
36441;SDS011;64346;50.820;16.274;2022-11-20T02:57:02;29.50;;;13.52;;
36441;SDS011;64346;50.820;16.274;2022-11-20T02:59:29;32.08;;;14.23;;
36441;SDS011;64346;50.820;16.274;2022-11-20T03:01:59;31.98;;;15.18;;
36441;SDS011;64346;50.820;16.274;2022-11-20T03:04:26;32.42;;;16.67;;
36441;SDS011;64346;50.820;16.274;2022-11-20T03:06:53;36.60;;;17.73;;
36441;SDS011;64346;50.820;16.274;2022-11-20T03:09:20;33.13;;;15.32;;
36441;SDS011;64346;50.820;16.274;2022-11-20T03:11:51;35.17;;;16.50;;
36441;SDS011;64346;50.820;16.274;2022-11-20T03:14:21;34.40;;;16.55;;
36441;SDS011;64346;50.820;16.274;2022-11-20T03:16:48;33.35;;;15.98;;
36441;SDS011;64346;50.820;16.274;2022-11-20T03:19:15;37.80;;;17.08;;
36441;SDS011;64346;50.820;16.274;2022-11-20T03:21:43;33.67;;;15.32;;
36441;SDS011;64346;50.820;16.274;2022-11-20T03:24:10;32.85;;;16.20;;
36441;SDS011;64346;50.820;16.274;2022-11-20T03:26:40;35.20;;;16.60;;
36441;SDS011;64346;50.820;16.274;2022-11-20T03:29:09;32.88;;;16.65;;
36441;SDS011;64346;50.820;16.274;2022-11-20T03:31:39;33.08;;;15.70;;
36441;SDS011;64346;50.820;16.274;2022-11-20T03:34:08;35.20;;;16.08;;
36441;SDS011;64346;50.820;16.274;2022-11-20T03:36:38;31.95;;;16.30;;
36441;SDS011;64346;50.820;16.274;2022-11-20T03:39:09;34.30;;;17.13;;
36441;SDS011;64346;50.820;16.274;2022-11-20T03:41:39;33.90;;;16.45;;
36441;SDS011;64346;50.820;16.274;2022-11-20T03:44:10;35.88;;;17.25;;
36441;SDS011;64346;50.820;16.274;2022-11-20T03:46:37;32.63;;;17.63;;
36441;SDS011;64346;50.820;16.274;2022-11-20T03:49:07;34.88;;;18.42;;
36441;SDS011;64346;50.820;16.274;2022-11-20T03:51:37;41.13;;;18.83;;
36441;SDS011;64346;50.820;16.274;2022-11-20T03:54:06;37.70;;;18.42;;
36441;SDS011;64346;50.820;16.274;2022-11-20T03:56:38;35.78;;;18.60;;
36441;SDS011;64346;50.820;16.274;2022-11-20T03:59:05;37.15;;;18.42;;
36441;SDS011;64346;50.820;16.274;2022-11-20T04:01:34;35.35;;;17.50;;
36441;SDS011;64346;50.820;16.274;2022-11-20T04:04:03;35.92;;;17.55;;
36441;SDS011;64346;50.820;16.274;2022-11-20T04:06:33;39.20;;;19.30;;
36441;SDS011;64346;50.820;16.274;2022-11-20T04:09:02;38.30;;;19.40;;
36441;SDS011;64346;50.820;16.274;2022-11-20T04:11:30;36.50;;;17.85;;
36441;SDS011;64346;50.820;16.274;2022-11-20T04:14:02;33.45;;;16.65;;
36441;SDS011;64346;50.820;16.274;2022-11-20T04:16:34;34.78;;;16.60;;
36441;SDS011;64346;50.820;16.274;2022-11-20T04:19:05;32.95;;;15.65;;
36441;SDS011;64346;50.820;16.274;2022-11-20T04:24:06;31.08;;;16.27;;
36441;SDS011;64346;50.820;16.274;2022-11-20T04:26:37;34.67;;;16.50;;
36441;SDS011;64346;50.820;16.274;2022-11-20T04:29:09;35.55;;;16.25;;
36441;SDS011;64346;50.820;16.274;2022-11-20T04:31:37;35.17;;;16.90;;
36441;SDS011;64346;50.820;16.274;2022-11-20T04:34:06;32.05;;;17.17;;
36441;SDS011;64346;50.820;16.274;2022-11-20T04:36:36;32.47;;;16.23;;
36441;SDS011;64346;50.820;16.274;2022-11-20T04:39:05;31.10;;;15.70;;
36441;SDS011;64346;50.820;16.274;2022-11-20T04:41:38;33.85;;;16.73;;
36441;SDS011;64346;50.820;16.274;2022-11-20T04:44:08;30.67;;;15.52;;
36441;SDS011;64346;50.820;16.274;2022-11-20T04:46:36;30.38;;;15.57;;
36441;SDS011;64346;50.820;16.274;2022-11-20T04:49:05;32.03;;;15.43;;
36441;SDS011;64346;50.820;16.274;2022-11-20T04:51:33;33.88;;;16.88;;
36441;SDS011;64346;50.820;16.274;2022-11-20T04:54:01;30.90;;;16.23;;
36441;SDS011;64346;50.820;16.274;2022-11-20T04:56:28;32.22;;;16.77;;
36441;SDS011;64346;50.820;16.274;2022-11-20T04:58:55;34.67;;;16.65;;
36441;SDS011;64346;50.820;16.274;2022-11-20T05:01:29;33.28;;;16.80;;
36441;SDS011;64346;50.820;16.274;2022-11-20T05:03:57;33.50;;;17.25;;
36441;SDS011;64346;50.820;16.274;2022-11-20T05:06:26;32.63;;;16.80;;
36441;SDS011;64346;50.820;16.274;2022-11-20T05:08:54;35.60;;;17.10;;
36441;SDS011;64346;50.820;16.274;2022-11-20T05:11:21;35.13;;;17.50;;
36441;SDS011;64346;50.820;16.274;2022-11-20T05:13:49;30.90;;;16.52;;
36441;SDS011;64346;50.820;16.274;2022-11-20T05:16:18;35.45;;;18.10;;
36441;SDS011;64346;50.820;16.274;2022-11-20T05:18:48;33.55;;;18.45;;
36441;SDS011;64346;50.820;16.274;2022-11-20T05:21:16;36.15;;;17.63;;
36441;SDS011;64346;50.820;16.274;2022-11-20T05:23:47;36.20;;;18.00;;
36441;SDS011;64346;50.820;16.274;2022-11-20T05:26:18;34.20;;;18.23;;
36441;SDS011;64346;50.820;16.274;2022-11-20T05:28:50;34.35;;;17.67;;
36441;SDS011;64346;50.820;16.274;2022-11-20T05:31:18;35.40;;;17.20;;
36441;SDS011;64346;50.820;16.274;2022-11-20T05:33:55;32.40;;;16.55;;
36441;SDS011;64346;50.820;16.274;2022-11-20T05:36:22;31.65;;;16.67;;
36441;SDS011;64346;50.820;16.274;2022-11-20T05:38:52;30.60;;;16.73;;
36441;SDS011;64346;50.820;16.274;2022-11-20T05:41:26;33.55;;;16.77;;
36441;SDS011;64346;50.820;16.274;2022-11-20T05:43:55;32.42;;;16.00;;
36441;SDS011;64346;50.820;16.274;2022-11-20T05:46:23;30.48;;;15.65;;
36441;SDS011;64346;50.820;16.274;2022-11-20T05:48:55;31.75;;;16.45;;
36441;SDS011;64346;50.820;16.274;2022-11-20T05:51:26;30.80;;;16.33;;
36441;SDS011;64346;50.820;16.274;2022-11-20T05:53:56;34.30;;;17.08;;
36441;SDS011;64346;50.820;16.274;2022-11-20T05:56:25;30.50;;;15.63;;
36441;SDS011;64346;50.820;16.274;2022-11-20T05:58:53;34.10;;;17.40;;
36441;SDS011;64346;50.820;16.274;2022-11-20T06:01:23;31.70;;;15.95;;
36441;SDS011;64346;50.820;16.274;2022-11-20T06:03:52;31.65;;;16.48;;
36441;SDS011;64346;50.820;16.274;2022-11-20T06:06:20;32.72;;;16.73;;
36441;SDS011;64346;50.820;16.274;2022-11-20T06:08:50;35.67;;;17.33;;
36441;SDS011;64346;50.820;16.274;2022-11-20T06:11:19;36.72;;;16.48;;
36441;SDS011;64346;50.820;16.274;2022-11-20T06:13:47;32.72;;;16.30;;
36441;SDS011;64346;50.820;16.274;2022-11-20T06:16:15;37.90;;;19.00;;
36441;SDS011;64346;50.820;16.274;2022-11-20T06:18:46;36.92;;;18.50;;
36441;SDS011;64346;50.820;16.274;2022-11-20T06:21:15;31.42;;;16.88;;
36441;SDS011;64346;50.820;16.274;2022-11-20T06:23:45;34.13;;;15.30;;
36441;SDS011;64346;50.820;16.274;2022-11-20T06:26:14;30.88;;;15.50;;
36441;SDS011;64346;50.820;16.274;2022-11-20T06:28:43;28.02;;;14.23;;
36441;SDS011;64346;50.820;16.274;2022-11-20T06:31:14;29.10;;;15.48;;
36441;SDS011;64346;50.820;16.274;2022-11-20T06:33:45;29.02;;;14.70;;
36441;SDS011;64346;50.820;16.274;2022-11-20T06:36:13;27.73;;;14.30;;
36441;SDS011;64346;50.820;16.274;2022-11-20T06:38:44;28.55;;;15.20;;
36441;SDS011;64346;50.820;16.274;2022-11-20T06:41:18;28.73;;;15.27;;
36441;SDS011;64346;50.820;16.274;2022-11-20T06:43:50;29.88;;;15.35;;
36441;SDS011;64346;50.820;16.274;2022-11-20T06:46:18;34.17;;;16.75;;
36441;SDS011;64346;50.820;16.274;2022-11-20T06:48:46;35.22;;;17.80;;
36441;SDS011;64346;50.820;16.274;2022-11-20T06:51:16;30.92;;;15.73;;
36441;SDS011;64346;50.820;16.274;2022-11-20T06:53:44;28.88;;;14.73;;
36441;SDS011;64346;50.820;16.274;2022-11-20T06:56:13;29.20;;;15.85;;
36441;SDS011;64346;50.820;16.274;2022-11-20T06:58:41;31.60;;;16.13;;
36441;SDS011;64346;50.820;16.274;2022-11-20T07:01:12;28.60;;;15.48;;
36441;SDS011;64346;50.820;16.274;2022-11-20T07:03:44;25.20;;;14.80;;
36441;SDS011;64346;50.820;16.274;2022-11-20T07:06:16;28.90;;;15.30;;
36441;SDS011;64346;50.820;16.274;2022-11-20T07:08:44;26.13;;;14.38;;
36441;SDS011;64346;50.820;16.274;2022-11-20T07:11:13;30.33;;;17.38;;
36441;SDS011;64346;50.820;16.274;2022-11-20T07:13:44;35.13;;;20.27;;
36441;SDS011;64346;50.820;16.274;2022-11-20T07:16:11;31.50;;;19.27;;
36441;SDS011;64346;50.820;16.274;2022-11-20T07:18:38;33.47;;;20.23;;
36441;SDS011;64346;50.820;16.274;2022-11-20T07:21:06;36.42;;;21.98;;
36441;SDS011;64346;50.820;16.274;2022-11-20T07:23:35;36.78;;;23.27;;
36441;SDS011;64346;50.820;16.274;2022-11-20T07:26:03;36.17;;;22.38;;
36441;SDS011;64346;50.820;16.274;2022-11-20T07:28:35;36.70;;;23.67;;
36441;SDS011;64346;50.820;16.274;2022-11-20T07:31:02;34.42;;;22.70;;
36441;SDS011;64346;50.820;16.274;2022-11-20T07:33:30;35.58;;;24.30;;
36441;SDS011;64346;50.820;16.274;2022-11-20T07:35:58;36.53;;;25.92;;
36441;SDS011;64346;50.820;16.274;2022-11-20T07:38:26;44.20;;;30.63;;
36441;SDS011;64346;50.820;16.274;2022-11-20T07:40:56;48.22;;;31.15;;
36441;SDS011;64346;50.820;16.274;2022-11-20T07:43:24;43.13;;;28.45;;
36441;SDS011;64346;50.820;16.274;2022-11-20T07:45:51;42.92;;;29.55;;
36441;SDS011;64346;50.820;16.274;2022-11-20T07:48:18;41.17;;;29.10;;
36441;SDS011;64346;50.820;16.274;2022-11-20T07:50:48;36.13;;;26.58;;
36441;SDS011;64346;50.820;16.274;2022-11-20T07:53:19;37.80;;;27.20;;
36441;SDS011;64346;50.820;16.274;2022-11-20T07:55:49;38.80;;;27.55;;
36441;SDS011;64346;50.820;16.274;2022-11-20T07:58:16;36.88;;;27.40;;
36441;SDS011;64346;50.820;16.274;2022-11-20T08:00:43;39.17;;;27.10;;
36441;SDS011;64346;50.820;16.274;2022-11-20T08:03:11;35.28;;;26.05;;
36441;SDS011;64346;50.820;16.274;2022-11-20T08:05:40;33.67;;;25.40;;
36441;SDS011;64346;50.820;16.274;2022-11-20T08:08:10;36.25;;;27.63;;
36441;SDS011;64346;50.820;16.274;2022-11-20T08:10:40;38.72;;;27.73;;
36441;SDS011;64346;50.820;16.274;2022-11-20T08:13:08;35.10;;;26.75;;
36441;SDS011;64346;50.820;16.274;2022-11-20T08:15:35;37.15;;;28.13;;
36441;SDS011;64346;50.820;16.274;2022-11-20T08:18:10;43.03;;;32.42;;
36441;SDS011;64346;50.820;16.274;2022-11-20T08:21:00;42.50;;;31.90;;
36441;SDS011;64346;50.820;16.274;2022-11-20T08:23:29;53.55;;;40.72;;
36441;SDS011;64346;50.820;16.274;2022-11-20T08:25:59;36.25;;;27.48;;
36441;SDS011;64346;50.820;16.274;2022-11-20T08:28:28;32.28;;;23.63;;
36441;SDS011;64346;50.820;16.274;2022-11-20T08:31:01;29.88;;;21.05;;
36441;SDS011;64346;50.820;16.274;2022-11-20T08:33:31;33.22;;;22.05;;
36441;SDS011;64346;50.820;16.274;2022-11-20T08:36:02;27.65;;;19.40;;
36441;SDS011;64346;50.820;16.274;2022-11-20T08:38:33;27.73;;;20.08;;
36441;SDS011;64346;50.820;16.274;2022-11-20T08:41:04;29.17;;;21.00;;
36441;SDS011;64346;50.820;16.274;2022-11-20T08:43:31;26.33;;;19.85;;
36441;SDS011;64346;50.820;16.274;2022-11-20T08:45:58;28.05;;;20.40;;
36441;SDS011;64346;50.820;16.274;2022-11-20T08:48:26;26.77;;;18.98;;
36441;SDS011;64346;50.820;16.274;2022-11-20T08:50:53;28.00;;;19.83;;
36441;SDS011;64346;50.820;16.274;2022-11-20T08:53:23;29.40;;;19.75;;
36441;SDS011;64346;50.820;16.274;2022-11-20T08:55:51;28.25;;;19.80;;
36441;SDS011;64346;50.820;16.274;2022-11-20T08:58:18;27.40;;;19.15;;
36441;SDS011;64346;50.820;16.274;2022-11-20T09:00:45;29.13;;;19.00;;
36441;SDS011;64346;50.820;16.274;2022-11-20T09:03:13;25.75;;;17.88;;
36441;SDS011;64346;50.820;16.274;2022-11-20T09:05:43;26.98;;;18.95;;
36441;SDS011;64346;50.820;16.274;2022-11-20T09:08:12;27.20;;;18.73;;
36441;SDS011;64346;50.820;16.274;2022-11-20T09:10:40;27.70;;;18.90;;
36441;SDS011;64346;50.820;16.274;2022-11-20T09:13:07;28.10;;;20.00;;
36441;SDS011;64346;50.820;16.274;2022-11-20T09:15:36;25.42;;;17.90;;
36441;SDS011;64346;50.820;16.274;2022-11-20T09:18:06;25.97;;;16.87;;
36441;SDS011;64346;50.820;16.274;2022-11-20T09:20:33;21.65;;;15.93;;
36441;SDS011;64346;50.820;16.274;2022-11-20T09:23:01;23.40;;;16.75;;
36441;SDS011;64346;50.820;16.274;2022-11-20T09:25:28;21.10;;;15.18;;
36441;SDS011;64346;50.820;16.274;2022-11-20T09:27:56;21.63;;;15.23;;
36441;SDS011;64346;50.820;16.274;2022-11-20T09:30:23;18.13;;;12.65;;
36441;SDS011;64346;50.820;16.274;2022-11-20T09:32:51;20.88;;;14.68;;
36441;SDS011;64346;50.820;16.274;2022-11-20T09:35:19;17.52;;;12.48;;
36441;SDS011;64346;50.820;16.274;2022-11-20T09:37:46;17.33;;;12.18;;
36441;SDS011;64346;50.820;16.274;2022-11-20T09:40:19;23.95;;;17.48;;
36441;SDS011;64346;50.820;16.274;2022-11-20T09:51:16;31.63;;;24.92;;
36441;SDS011;64346;50.820;16.274;2022-11-20T09:56:51;17.38;;;11.40;;
36441;SDS011;64346;50.820;16.274;2022-11-20T09:59:33;18.30;;;11.85;;
36441;SDS011;64346;50.820;16.274;2022-11-20T10:02:03;16.02;;;11.48;;
36441;SDS011;64346;50.820;16.274;2022-11-20T10:05:12;16.40;;;11.57;;
36441;SDS011;64346;50.820;16.274;2022-11-20T10:18:49;17.73;;;11.90;;
36441;SDS011;64346;50.820;16.274;2022-11-20T10:30:22;18.42;;;12.18;;
36441;SDS011;64346;50.820;16.274;2022-11-20T10:38:33;18.45;;;12.55;;
36441;SDS011;64346;50.820;16.274;2022-11-20T10:41:04;18.60;;;11.60;;
36441;SDS011;64346;50.820;16.274;2022-11-20T10:43:33;20.85;;;13.00;;
36441;SDS011;64346;50.820;16.274;2022-11-20T10:46:05;20.13;;;13.23;;
36441;SDS011;64346;50.820;16.274;2022-11-20T10:48:39;18.92;;;12.80;;
36441;SDS011;64346;50.820;16.274;2022-11-20T10:55:02;20.77;;;12.30;;
36441;SDS011;64346;50.820;16.274;2022-11-20T10:57:49;20.17;;;12.73;;
36441;SDS011;64346;50.820;16.274;2022-11-20T11:00:26;19.63;;;12.07;;
36441;SDS011;64346;50.820;16.274;2022-11-20T11:02:53;17.92;;;11.65;;
36441;SDS011;64346;50.820;16.274;2022-11-20T11:05:31;21.75;;;13.57;;
36441;SDS011;64346;50.820;16.274;2022-11-20T11:08:04;19.47;;;12.23;;
36441;SDS011;64346;50.820;16.274;2022-11-20T11:10:54;21.50;;;13.18;;
36441;SDS011;64346;50.820;16.274;2022-11-20T11:13:28;21.02;;;13.27;;
36441;SDS011;64346;50.820;16.274;2022-11-20T11:15:57;24.30;;;14.52;;
36441;SDS011;64346;50.820;16.274;2022-11-20T11:18:30;22.17;;;11.95;;
36441;SDS011;64346;50.820;16.274;2022-11-20T11:21:04;22.33;;;12.73;;
36441;SDS011;64346;50.820;16.274;2022-11-20T11:23:33;22.23;;;12.35;;
36441;SDS011;64346;50.820;16.274;2022-11-20T11:26:06;24.85;;;14.40;;
36441;SDS011;64346;50.820;16.274;2022-11-20T11:31:29;25.55;;;13.45;;
36441;SDS011;64346;50.820;16.274;2022-11-20T11:34:06;23.80;;;13.02;;
36441;SDS011;64346;50.820;16.274;2022-11-20T11:36:41;29.95;;;14.57;;
36441;SDS011;64346;50.820;16.274;2022-11-20T11:39:14;25.15;;;13.25;;
36441;SDS011;64346;50.820;16.274;2022-11-20T11:41:43;26.20;;;13.85;;
36441;SDS011;64346;50.820;16.274;2022-11-20T11:44:21;26.17;;;13.27;;
36441;SDS011;64346;50.820;16.274;2022-11-20T11:46:49;25.35;;;13.40;;
36441;SDS011;64346;50.820;16.274;2022-11-20T11:49:20;26.42;;;14.00;;
36441;SDS011;64346;50.820;16.274;2022-11-20T11:54:37;27.25;;;14.13;;
36441;SDS011;64346;50.820;16.274;2022-11-20T12:02:39;30.73;;;15.52;;
36441;SDS011;64346;50.820;16.274;2022-11-20T12:08:02;30.83;;;16.45;;
36441;SDS011;64346;50.820;16.274;2022-11-20T12:11:05;28.25;;;15.50;;
36441;SDS011;64346;50.820;16.274;2022-11-20T12:16:30;33.13;;;16.60;;
36441;SDS011;64346;50.820;16.274;2022-11-20T12:19:02;30.17;;;15.07;;
36441;SDS011;64346;50.820;16.274;2022-11-20T12:32:34;32.13;;;16.65;;
36441;SDS011;64346;50.820;16.274;2022-11-20T12:35:42;29.15;;;15.13;;
36441;SDS011;64346;50.820;16.274;2022-11-20T12:47:00;31.83;;;16.60;;
36441;SDS011;64346;50.820;16.274;2022-11-20T12:49:35;31.92;;;14.50;;
36441;SDS011;64346;50.820;16.274;2022-11-20T12:57:28;29.17;;;14.77;;
36441;SDS011;64346;50.820;16.274;2022-11-20T13:00:18;29.58;;;15.43;;
36441;SDS011;64346;50.820;16.274;2022-11-20T13:08:35;29.65;;;15.73;;
36441;SDS011;64346;50.820;16.274;2022-11-20T13:11:17;27.08;;;14.88;;
36441;SDS011;64346;50.820;16.274;2022-11-20T13:14:03;32.13;;;15.98;;
36441;SDS011;64346;50.820;16.274;2022-11-20T13:17:09;33.92;;;16.85;;
36441;SDS011;64346;50.820;16.274;2022-11-20T13:19:54;29.65;;;15.10;;
36441;SDS011;64346;50.820;16.274;2022-11-20T13:22:26;31.45;;;16.00;;
36441;SDS011;64346;50.820;16.274;2022-11-20T13:27:52;27.52;;;14.65;;
36441;SDS011;64346;50.820;16.274;2022-11-20T13:30:27;31.35;;;15.02;;
36441;SDS011;64346;50.820;16.274;2022-11-20T13:35:35;31.88;;;16.30;;
36441;SDS011;64346;50.820;16.274;2022-11-20T13:38:10;35.08;;;17.23;;
36441;SDS011;64346;50.820;16.274;2022-11-20T13:43:40;37.92;;;18.60;;
36441;SDS011;64346;50.820;16.274;2022-11-20T13:46:08;36.17;;;17.23;;
36441;SDS011;64346;50.820;16.274;2022-11-20T13:48:40;37.47;;;18.80;;
36441;SDS011;64346;50.820;16.274;2022-11-20T14:01:48;37.88;;;18.27;;
36441;SDS011;64346;50.820;16.274;2022-11-20T14:04:18;34.80;;;18.02;;
36441;SDS011;64346;50.820;16.274;2022-11-20T14:06:52;30.52;;;15.02;;
36441;SDS011;64346;50.820;16.274;2022-11-20T14:11:54;30.65;;;16.85;;
36441;SDS011;64346;50.820;16.274;2022-11-20T14:14:25;29.00;;;15.07;;
36441;SDS011;64346;50.820;16.274;2022-11-20T14:19:46;29.13;;;14.98;;
36441;SDS011;64346;50.820;16.274;2022-11-20T14:24:48;30.00;;;15.23;;
36441;SDS011;64346;50.820;16.274;2022-11-20T14:27:27;37.22;;;18.02;;
36441;SDS011;64346;50.820;16.274;2022-11-20T14:29:54;29.50;;;15.57;;
36441;SDS011;64346;50.820;16.274;2022-11-20T14:32:28;32.13;;;16.92;;
36441;SDS011;64346;50.820;16.274;2022-11-20T14:35:00;32.58;;;16.90;;
36441;SDS011;64346;50.820;16.274;2022-11-20T14:37:37;33.90;;;16.77;;
36441;SDS011;64346;50.820;16.274;2022-11-20T14:42:54;32.00;;;17.33;;
36441;SDS011;64346;50.820;16.274;2022-11-20T14:45:22;39.97;;;19.20;;
36441;SDS011;64346;50.820;16.274;2022-11-20T14:47:55;38.65;;;20.00;;
36441;SDS011;64346;50.820;16.274;2022-11-20T14:55:39;37.40;;;19.58;;
36441;SDS011;64346;50.820;16.274;2022-11-20T14:58:27;36.00;;;17.52;;
36441;SDS011;64346;50.820;16.274;2022-11-20T15:00:57;31.05;;;15.65;;
36441;SDS011;64346;50.820;16.274;2022-11-20T15:03:30;32.35;;;16.33;;
36441;SDS011;64346;50.820;16.274;2022-11-20T15:06:09;31.92;;;16.70;;
36441;SDS011;64346;50.820;16.274;2022-11-20T15:08:38;35.38;;;18.75;;
36441;SDS011;64346;50.820;16.274;2022-11-20T15:11:20;32.40;;;16.50;;
36441;SDS011;64346;50.820;16.274;2022-11-20T15:13:55;31.58;;;16.00;;
36441;SDS011;64346;50.820;16.274;2022-11-20T15:16:23;35.20;;;17.48;;
36441;SDS011;64346;50.820;16.274;2022-11-20T15:18:53;33.40;;;16.73;;
36441;SDS011;64346;50.820;16.274;2022-11-20T15:21:21;33.35;;;17.20;;
36441;SDS011;64346;50.820;16.274;2022-11-20T15:23:49;32.38;;;16.95;;
36441;SDS011;64346;50.820;16.274;2022-11-20T15:26:21;36.50;;;17.85;;
36441;SDS011;64346;50.820;16.274;2022-11-20T15:28:54;35.72;;;17.33;;
36441;SDS011;64346;50.820;16.274;2022-11-20T15:31:22;35.58;;;17.58;;
36441;SDS011;64346;50.820;16.274;2022-11-20T15:33:50;38.33;;;18.85;;
36441;SDS011;64346;50.820;16.274;2022-11-20T15:36:17;36.13;;;18.00;;
36441;SDS011;64346;50.820;16.274;2022-11-20T15:38:48;37.45;;;19.65;;
36441;SDS011;64346;50.820;16.274;2022-11-20T15:41:15;38.42;;;20.40;;
36441;SDS011;64346;50.820;16.274;2022-11-20T15:43:42;42.88;;;19.92;;
36441;SDS011;64346;50.820;16.274;2022-11-20T15:46:13;44.38;;;22.38;;
36441;SDS011;64346;50.820;16.274;2022-11-20T15:48:51;42.95;;;21.13;;
36441;SDS011;64346;50.820;16.274;2022-11-20T15:54:18;43.58;;;21.73;;
36441;SDS011;64346;50.820;16.274;2022-11-20T15:56:51;45.10;;;21.90;;
36441;SDS011;64346;50.820;16.274;2022-11-20T15:59:19;44.88;;;22.08;;
36441;SDS011;64346;50.820;16.274;2022-11-20T16:01:46;40.58;;;21.23;;
36441;SDS011;64346;50.820;16.274;2022-11-20T16:04:14;45.45;;;23.35;;
36441;SDS011;64346;50.820;16.274;2022-11-20T16:06:42;41.55;;;20.95;;
36441;SDS011;64346;50.820;16.274;2022-11-20T16:09:11;47.28;;;23.40;;
36441;SDS011;64346;50.820;16.274;2022-11-20T16:11:40;45.28;;;21.30;;
36441;SDS011;64346;50.820;16.274;2022-11-20T16:14:09;44.38;;;22.55;;
36441;SDS011;64346;50.820;16.274;2022-11-20T16:16:37;44.00;;;23.35;;
36441;SDS011;64346;50.820;16.274;2022-11-20T16:19:09;49.80;;;25.42;;
36441;SDS011;64346;50.820;16.274;2022-11-20T16:21:41;45.15;;;23.60;;
36441;SDS011;64346;50.820;16.274;2022-11-20T16:24:10;46.22;;;24.95;;
36441;SDS011;64346;50.820;16.274;2022-11-20T16:26:40;44.85;;;22.27;;
36441;SDS011;64346;50.820;16.274;2022-11-20T16:29:08;40.35;;;21.63;;
36441;SDS011;64346;50.820;16.274;2022-11-20T16:31:35;46.60;;;23.55;;
36441;SDS011;64346;50.820;16.274;2022-11-20T16:34:03;48.25;;;24.73;;
36441;SDS011;64346;50.820;16.274;2022-11-20T16:36:41;47.70;;;22.75;;
36441;SDS011;64346;50.820;16.274;2022-11-20T16:39:12;43.50;;;21.15;;
36441;SDS011;64346;50.820;16.274;2022-11-20T16:41:45;37.97;;;19.23;;